createdAt,value
2019-02-23T00:01:08.570Z,19.90
2019-02-23T00:03:39.553Z,23.37
2019-02-23T00:06:06.894Z,22.93
2019-02-23T00:08:34.236Z,23.83
2019-02-23T00:11:01.593Z,26.50
2019-02-23T00:13:29.062Z,25.83
2019-02-23T00:15:56.413Z,26.53
2019-02-23T00:18:23.774Z,25.93
2019-02-23T00:20:51.115Z,28.27
2019-02-23T00:23:18.453Z,27.07
2019-02-23T00:25:46.221Z,25.60
2019-02-23T00:28:13.522Z,25.10
2019-02-23T00:30:40.887Z,24.23
2019-02-23T00:33:08.286Z,23.07
2019-02-23T00:35:35.613Z,21.23
2019-02-23T00:38:03.290Z,19.80
2019-02-23T00:40:30.733Z,19.83
2019-02-23T00:42:58.075Z,21.93
2019-02-23T00:45:25.409Z,20.67
2019-02-23T00:47:52.808Z,25.57
2019-02-23T00:50:20.129Z,25.47
2019-02-23T00:52:47.457Z,22.50
2019-02-23T00:55:14.853Z,21.03
2019-02-23T00:57:42.193Z,24.83
2019-02-23T01:00:11.033Z,24.93
2019-02-23T01:02:38.433Z,27.47
2019-02-23T01:05:05.893Z,27.47
2019-02-23T01:07:33.325Z,28.03
2019-02-23T01:10:00.818Z,26.63
2019-02-23T01:12:28.197Z,28.00
2019-02-23T01:14:55.522Z,29.83
2019-02-23T01:17:22.881Z,29.10
2019-02-23T01:19:50.210Z,28.27
2019-02-23T01:22:17.573Z,29.87
2019-02-23T01:24:45.380Z,30.87
2019-02-23T01:27:12.697Z,29.27
2019-02-23T01:29:40.060Z,30.10
2019-02-23T01:32:08.102Z,30.07
2019-02-23T01:34:35.431Z,30.33
2019-02-23T01:37:02.739Z,29.13
2019-02-23T01:39:30.813Z,29.97
2019-02-23T01:41:58.148Z,28.73
2019-02-23T01:44:25.507Z,28.07
2019-02-23T01:46:52.824Z,26.77
2019-02-23T01:49:20.647Z,28.20
2019-02-23T01:51:47.969Z,29.67
2019-02-23T01:54:15.328Z,29.63
2019-02-23T01:56:42.655Z,30.20
2019-02-23T01:59:09.960Z,29.40
2019-02-23T02:01:37.310Z,28.67
2019-02-23T02:04:04.716Z,27.70
2019-02-23T02:06:33.628Z,28.37
2019-02-23T02:09:01.230Z,27.13
2019-02-23T02:11:28.527Z,26.80
2019-02-23T02:13:55.886Z,25.83
2019-02-23T02:16:23.400Z,25.00
2019-02-23T02:18:50.761Z,27.97
2019-02-23T02:21:18.074Z,29.13
2019-02-23T02:23:45.436Z,34.03
2019-02-23T02:26:12.747Z,34.87
2019-02-23T02:28:40.073Z,33.77
2019-02-23T02:31:07.415Z,32.13
2019-02-23T02:33:57.162Z,33.60
2019-02-23T02:36:24.516Z,33.30
2019-02-23T02:38:51.849Z,32.90
2019-02-23T02:41:19.134Z,30.87
2019-02-23T02:43:46.513Z,30.40
2019-02-23T02:46:13.851Z,30.60
2019-02-23T02:48:41.181Z,30.50
2019-02-23T02:51:08.556Z,29.20
2019-02-23T02:53:35.842Z,27.87
2019-02-23T02:56:03.254Z,27.03
2019-02-23T02:58:30.621Z,26.67
2019-02-23T03:00:57.936Z,27.93
2019-02-23T03:03:25.260Z,26.47
2019-02-23T03:05:52.637Z,27.07
2019-02-23T03:08:19.937Z,27.23
2019-02-23T03:10:47.220Z,25.77
2019-02-23T03:13:14.594Z,29.37
2019-02-23T03:15:41.894Z,27.60
2019-02-23T03:18:09.189Z,29.87
2019-02-23T03:20:37.039Z,29.07
2019-02-23T03:23:04.596Z,26.87
2019-02-23T03:25:31.916Z,27.10
2019-02-23T03:27:59.281Z,28.17
2019-02-23T03:30:26.762Z,25.97
2019-02-23T03:32:54.460Z,28.40
2019-02-23T03:35:22.098Z,29.20
2019-02-23T03:37:49.703Z,29.10
2019-02-23T03:40:17.223Z,28.97
2019-02-23T03:42:44.791Z,29.93
2019-02-23T03:45:12.600Z,26.13
2019-02-23T03:47:40.220Z,26.53
2019-02-23T03:50:07.607Z,26.60
2019-02-23T03:52:37.028Z,24.73
2019-02-23T03:55:04.703Z,25.97
2019-02-23T03:57:32.064Z,23.50
2019-02-23T03:59:59.380Z,24.93
2019-02-23T04:02:26.700Z,24.67
2019-02-23T04:04:54.074Z,26.80
2019-02-23T04:07:21.389Z,23.20
2019-02-23T04:09:48.690Z,23.83
2019-02-23T04:12:16.060Z,24.10
2019-02-23T04:14:43.380Z,24.90
2019-02-23T04:17:10.705Z,24.57
2019-02-23T04:19:38.066Z,21.53
2019-02-23T04:22:05.357Z,23.53
2019-02-23T04:24:32.695Z,25.40
2019-02-23T04:27:00.041Z,23.40
2019-02-23T04:29:27.409Z,24.23
2019-02-23T04:31:54.747Z,25.73
2019-02-23T04:34:22.129Z,26.87
2019-02-23T04:36:49.434Z,28.10
2019-02-23T04:39:16.769Z,26.07
2019-02-23T04:41:44.131Z,25.07
2019-02-23T04:44:11.461Z,26.37
2019-02-23T04:46:39.200Z,25.87
2019-02-23T04:49:06.604Z,26.23
2019-02-23T04:51:34.378Z,26.97
2019-02-23T04:54:01.732Z,25.83
2019-02-23T04:56:29.044Z,26.33
2019-02-23T04:58:56.468Z,24.57
2019-02-23T05:01:23.780Z,26.07
2019-02-23T05:03:51.162Z,26.37
2019-02-23T05:06:18.483Z,26.20
2019-02-23T05:08:45.903Z,25.13
2019-02-23T05:11:13.268Z,24.40
2019-02-23T05:13:40.578Z,24.33
2019-02-23T05:16:07.894Z,27.07
2019-02-23T05:18:35.265Z,26.43
2019-02-23T05:21:02.581Z,26.70
2019-02-23T05:23:29.875Z,25.73
2019-02-23T05:25:57.275Z,24.50
2019-02-23T05:28:24.596Z,23.57
2019-02-23T05:30:51.892Z,26.63
2019-02-23T05:33:19.220Z,26.17
2019-02-23T05:35:46.535Z,26.63
2019-02-23T05:38:13.849Z,24.23
2019-02-23T05:40:41.181Z,24.53
2019-02-23T05:43:08.528Z,26.53
2019-02-23T05:45:35.824Z,21.83
2019-02-23T05:48:03.183Z,24.30
2019-02-23T05:50:30.531Z,23.87
2019-02-23T05:52:58.088Z,26.13
2019-02-23T05:55:25.459Z,26.67
2019-02-23T05:57:52.762Z,24.63
2019-02-23T06:00:20.076Z,26.10
2019-02-23T06:02:47.418Z,28.10
2019-02-23T06:05:14.752Z,26.33
2019-02-23T06:07:42.040Z,25.37
2019-02-23T06:10:10.083Z,25.30
2019-02-23T06:12:37.414Z,24.37
2019-02-23T06:15:06.970Z,26.13
2019-02-23T06:17:34.342Z,26.13
2019-02-23T06:20:01.642Z,25.57
2019-02-23T06:22:28.928Z,25.07
2019-02-23T06:24:56.290Z,24.47
2019-02-23T06:27:23.656Z,23.87
2019-02-23T06:29:50.938Z,24.77
2019-02-23T06:32:18.312Z,24.50
2019-02-23T06:34:45.624Z,23.63
2019-02-23T06:37:12.934Z,24.87
2019-02-23T06:39:40.284Z,24.70
2019-02-23T06:42:07.613Z,23.87
2019-02-23T06:44:34.931Z,22.83
2019-02-23T06:47:02.290Z,23.67
2019-02-23T06:49:29.663Z,22.77
2019-02-23T06:52:04.260Z,23.13
2019-02-23T06:54:27.712Z,21.03
2019-02-23T06:56:55.034Z,20.80
2019-02-23T06:59:22.364Z,20.93
2019-02-23T07:01:49.722Z,22.90
2019-02-23T07:04:17.533Z,22.10
2019-02-23T07:06:44.849Z,21.50
2019-02-23T07:09:12.195Z,21.17
2019-02-23T07:11:39.800Z,22.53
2019-02-23T07:14:07.122Z,21.93
2019-02-23T07:16:34.492Z,20.60
2019-02-23T07:19:01.830Z,21.73
2019-02-23T07:21:29.139Z,20.77
2019-02-23T07:23:56.499Z,22.67
2019-02-23T07:26:23.832Z,22.03
2019-02-23T07:28:51.168Z,22.03
2019-02-23T07:31:18.521Z,21.80
2019-02-23T07:33:45.813Z,21.80
2019-02-23T07:36:13.137Z,22.60
2019-02-23T07:38:40.502Z,23.23
2019-02-23T07:41:07.882Z,21.60
2019-02-23T07:43:35.184Z,22.50
2019-02-23T07:46:02.640Z,22.63
2019-02-23T07:48:29.970Z,21.97
2019-02-23T07:50:57.326Z,22.27
2019-02-23T07:53:24.690Z,23.40
2019-02-23T07:55:52.017Z,21.97
2019-02-23T07:58:19.346Z,22.27
2019-02-23T08:00:47.044Z,21.47
2019-02-23T08:03:14.526Z,21.90
2019-02-23T08:05:41.876Z,21.23
2019-02-23T08:08:09.286Z,21.43
2019-02-23T08:10:36.634Z,22.50
2019-02-23T08:13:04.923Z,21.13
2019-02-23T08:15:32.333Z,21.07
2019-02-23T08:17:59.648Z,19.60
2019-02-23T08:20:27.197Z,19.17
2019-02-23T08:22:54.622Z,18.77
2019-02-23T08:25:21.976Z,20.77
2019-02-23T08:27:49.357Z,20.07
2019-02-23T08:30:16.763Z,20.60
2019-02-23T08:32:44.073Z,20.23
2019-02-23T08:35:11.402Z,19.47
2019-02-23T08:37:39.038Z,21.37
2019-02-23T08:40:07.512Z,20.20
2019-02-23T08:42:35.116Z,22.13
2019-02-23T08:45:02.844Z,20.40
2019-02-23T08:47:30.442Z,20.03
2019-02-23T08:49:58.006Z,19.33
2019-02-23T08:52:25.407Z,18.77
2019-02-23T08:54:52.791Z,19.67
2019-02-23T08:57:20.148Z,19.43
2019-02-23T08:59:47.507Z,17.77
2019-02-23T09:02:14.847Z,19.83
2019-02-23T09:04:42.159Z,19.23
2019-02-23T09:07:09.549Z,17.40
2019-02-23T09:09:36.868Z,19.93
2019-02-23T09:12:04.186Z,17.03
2019-02-23T09:14:31.561Z,18.80
2019-02-23T09:16:59.002Z,18.47
2019-02-23T09:19:26.349Z,18.13
2019-02-23T09:21:53.729Z,18.33
2019-02-23T09:24:21.055Z,17.67
2019-02-23T09:26:48.440Z,16.77
2019-02-23T09:29:15.854Z,18.23
2019-02-23T09:31:43.198Z,16.30
2019-02-23T09:34:10.554Z,17.40
2019-02-23T09:36:37.954Z,15.47
2019-02-23T09:39:05.498Z,16.87
2019-02-23T09:41:32.845Z,16.27
2019-02-23T09:44:00.231Z,16.27
2019-02-23T09:46:27.564Z,17.23
2019-02-23T09:48:56.414Z,16.17
2019-02-23T09:51:24.174Z,14.60
2019-02-23T09:53:52.125Z,16.57
2019-02-23T09:56:19.705Z,15.57
2019-02-23T09:58:47.487Z,14.37
2019-02-23T10:01:14.849Z,16.70
2019-02-23T10:03:42.297Z,16.40
2019-02-23T10:06:09.710Z,15.60
2019-02-23T10:08:37.064Z,15.97
2019-02-23T10:11:04.375Z,17.03
2019-02-23T10:13:31.793Z,17.10
2019-02-23T10:15:59.124Z,17.83
2019-02-23T10:18:26.481Z,16.73
2019-02-23T10:20:53.881Z,16.93
2019-02-23T10:23:22.366Z,17.67
2019-02-23T10:25:50.236Z,16.00
2019-02-23T10:28:17.627Z,14.87
2019-02-23T10:30:44.987Z,15.27
2019-02-23T10:33:12.356Z,14.30
2019-02-23T10:35:40.152Z,14.10
2019-02-23T10:38:07.514Z,13.30
2019-02-23T10:40:35.302Z,12.37
2019-02-23T10:43:02.841Z,14.33
2019-02-23T10:45:30.328Z,14.43
2019-02-23T10:47:57.759Z,15.27
2019-02-23T10:50:25.120Z,10.93
2019-02-23T10:52:52.618Z,10.67
2019-02-23T10:55:19.995Z,11.97
2019-02-23T10:57:47.452Z,10.67
2019-02-23T11:00:18.097Z,10.60
2019-02-23T11:02:45.752Z,10.00
2019-02-23T11:05:13.253Z,10.43
2019-02-23T11:07:40.599Z,10.60
2019-02-23T11:10:08.112Z,10.20
2019-02-23T11:12:35.527Z,9.73
2019-02-23T11:15:02.853Z,9.67
2019-02-23T11:17:30.174Z,9.63
2019-02-23T11:19:57.634Z,8.00
2019-02-23T11:22:25.075Z,9.00
2019-02-23T11:24:52.419Z,8.03
2019-02-23T11:27:19.894Z,7.90
2019-02-23T11:29:49.352Z,8.73
2019-02-23T11:32:16.790Z,8.10
2019-02-23T11:34:44.235Z,8.60
2019-02-23T11:37:11.634Z,8.77
2019-02-23T11:39:39.024Z,8.10
2019-02-23T11:42:06.435Z,7.87
2019-02-23T11:44:33.829Z,8.20
2019-02-23T11:47:01.218Z,8.67
2019-02-23T11:49:28.695Z,7.77
2019-02-23T11:51:56.155Z,8.63
2019-02-23T11:54:23.482Z,7.93
2019-02-23T11:56:50.913Z,7.47
2019-02-23T11:59:18.320Z,6.83
2019-02-23T12:01:45.718Z,9.03
2019-02-23T12:04:13.227Z,8.47
2019-02-23T12:06:40.756Z,7.00
2019-02-23T12:09:08.465Z,8.03
2019-02-23T12:11:36.228Z,9.20
2019-02-23T12:14:03.890Z,8.17
2019-02-23T12:16:31.322Z,7.50
2019-02-23T12:18:58.810Z,6.93
2019-02-23T12:21:26.275Z,7.73
2019-02-23T12:23:53.693Z,6.77
2019-02-23T12:26:21.165Z,7.43
2019-02-23T12:28:48.573Z,6.87
2019-02-23T12:31:16.151Z,6.97
2019-02-23T12:33:43.612Z,6.13
2019-02-23T12:36:11.062Z,6.80
2019-02-23T12:38:38.456Z,5.70
2019-02-23T12:41:06.326Z,4.37
2019-02-23T12:43:33.807Z,5.00
2019-02-23T12:46:01.478Z,5.27
2019-02-23T12:48:29.037Z,5.20
2019-02-23T12:50:56.711Z,5.40
2019-02-23T12:53:24.513Z,5.47
2019-02-23T12:55:52.073Z,5.33
2019-02-23T12:58:19.783Z,6.63
2019-02-23T13:00:47.749Z,4.90
2019-02-23T13:03:15.337Z,5.37
2019-02-23T13:05:43.089Z,4.70
2019-02-23T13:08:10.824Z,5.07
2019-02-23T13:10:38.743Z,5.03
2019-02-23T13:13:45.444Z,5.23
2019-02-23T13:16:37.629Z,4.60
2019-02-23T13:19:41.472Z,3.73
2019-02-23T13:23:13.404Z,4.50
2019-02-23T13:26:10.385Z,5.17
2019-02-23T13:29:11.120Z,4.73
2019-02-23T13:32:22.660Z,4.43
2019-02-23T13:35:05.946Z,4.37
2019-02-23T13:38:16.745Z,3.43
2019-02-23T13:41:08.033Z,4.57
2019-02-23T13:44:38.389Z,4.80
2019-02-23T13:47:32.001Z,5.13
2019-02-23T13:50:44.003Z,4.70
2019-02-23T13:53:51.716Z,4.80
2019-02-23T13:56:42.969Z,4.70
2019-02-23T13:59:32.213Z,4.17
2019-02-23T14:02:53.672Z,5.50
2019-02-23T14:05:38.822Z,5.53
2019-02-23T14:09:00.158Z,5.20
2019-02-23T14:12:17.401Z,4.90
2019-02-23T14:15:29.206Z,5.23
2019-02-23T14:18:16.759Z,6.43
2019-02-23T14:21:11.235Z,6.43
2019-02-23T14:24:34.956Z,6.90
2019-02-23T14:27:40.204Z,6.77
2019-02-23T14:31:01.112Z,5.83
2019-02-23T14:34:15.705Z,6.73
2019-02-23T14:37:27.041Z,6.70
2019-02-23T14:40:30.996Z,6.20
2019-02-23T14:43:33.821Z,7.00
2019-02-23T14:46:51.691Z,6.63
2019-02-23T14:50:08.616Z,7.10
2019-02-23T14:53:09.054Z,6.47
2019-02-23T14:56:08.432Z,6.53
2019-02-23T14:59:11.662Z,6.83
2019-02-23T15:02:07.556Z,6.67
2019-02-23T15:05:19.968Z,6.47
2019-02-23T15:08:28.075Z,6.77
2019-02-23T15:11:46.674Z,7.13
2019-02-23T15:14:55.031Z,6.80
2019-02-23T15:17:59.094Z,7.47
2019-02-23T15:21:13.497Z,7.57
2019-02-23T15:24:21.353Z,7.23
2019-02-23T15:27:17.510Z,7.20
2019-02-23T15:30:29.651Z,7.67
2019-02-23T15:33:19.767Z,7.27
2019-02-23T15:36:27.597Z,8.10
2019-02-23T15:39:23.197Z,7.60
2019-02-23T15:42:50.414Z,7.83
2019-02-23T15:45:55.099Z,7.40
2019-02-23T15:48:39.767Z,6.93
2019-02-23T15:51:07.687Z,7.73
2019-02-23T15:53:35.628Z,8.77
2019-02-23T15:56:04.371Z,7.90
2019-02-23T15:58:32.330Z,9.00
2019-02-23T16:01:00.227Z,8.07
2019-02-23T16:03:28.129Z,7.53
2019-02-23T16:05:56.064Z,7.97
2019-02-23T16:08:23.921Z,8.27
2019-02-23T16:10:51.691Z,8.20
2019-02-23T16:13:19.511Z,7.93
2019-02-23T16:15:47.510Z,8.07
2019-02-23T16:18:15.315Z,8.23
2019-02-23T16:20:43.450Z,8.20
2019-02-23T16:23:11.878Z,8.43
2019-02-23T16:25:39.697Z,8.00
2019-02-23T16:28:07.639Z,8.00
2019-02-23T16:30:35.563Z,8.60
2019-02-23T16:33:03.457Z,9.00
2019-02-23T16:35:31.398Z,9.03
2019-02-23T16:37:59.333Z,7.80
2019-02-23T16:40:27.258Z,11.67
2019-02-23T16:42:57.287Z,7.10
2019-02-23T16:45:25.217Z,9.30
2019-02-23T16:47:53.120Z,8.03
2019-02-23T16:50:21.074Z,8.83
2019-02-23T16:52:48.988Z,9.30
2019-02-23T16:55:17.031Z,8.23
2019-02-23T16:57:44.940Z,8.70
2019-02-23T17:00:12.832Z,8.60
2019-02-23T17:02:40.732Z,9.20
2019-02-23T17:05:08.943Z,9.07
2019-02-23T17:07:36.742Z,8.50
2019-02-23T17:10:05.042Z,7.83
2019-02-23T17:12:33.030Z,9.20
2019-02-23T17:15:00.938Z,9.40
2019-02-23T17:17:28.858Z,9.27
2019-02-23T17:19:56.842Z,9.20
2019-02-23T17:22:25.980Z,8.90
2019-02-23T17:24:53.751Z,8.90
2019-02-23T17:27:21.913Z,8.23
2019-02-23T17:29:49.894Z,8.47
2019-02-23T17:32:17.919Z,8.60
2019-02-23T17:34:46.035Z,9.03
2019-02-23T17:37:13.931Z,8.57
2019-02-23T17:39:41.871Z,9.17
2019-02-23T17:42:09.772Z,8.87
2019-02-23T17:44:37.927Z,8.37
2019-02-23T17:47:06.119Z,9.10
2019-02-23T17:49:34.175Z,17.60
2019-02-23T17:52:02.001Z,13.27
2019-02-23T17:54:30.113Z,8.57
2019-02-23T17:56:58.110Z,8.67
2019-02-23T17:59:26.170Z,8.23
2019-02-23T18:01:54.230Z,8.27
2019-02-23T18:04:22.224Z,6.37
2019-02-23T18:06:50.145Z,7.00
2019-02-23T18:09:18.108Z,8.10
2019-02-23T18:11:46.206Z,8.73
2019-02-23T18:14:15.289Z,7.60
2019-02-23T18:16:43.229Z,7.30
2019-02-23T18:19:11.630Z,7.70
2019-02-23T18:21:39.560Z,7.37
2019-02-23T18:24:08.152Z,7.80
2019-02-23T18:26:36.192Z,6.63
2019-02-23T18:29:04.080Z,6.90
2019-02-23T18:31:32.401Z,7.47
2019-02-23T18:34:00.652Z,7.27
2019-02-23T18:36:28.910Z,7.13
2019-02-23T18:38:56.870Z,7.27
2019-02-23T18:41:24.867Z,7.17
2019-02-23T18:43:53.300Z,7.37
2019-02-23T18:46:21.137Z,7.17
2019-02-23T18:48:49.259Z,6.93
2019-02-23T18:51:17.233Z,7.37
2019-02-23T18:53:44.994Z,6.97
2019-02-23T18:56:13.044Z,7.53
2019-02-23T18:58:40.858Z,7.37
2019-02-23T19:01:09.181Z,6.13
2019-02-23T19:03:37.055Z,6.43
2019-02-23T19:06:04.963Z,6.40
2019-02-23T19:08:34.104Z,6.50
2019-02-23T19:11:02.071Z,7.20
2019-02-23T19:13:29.898Z,6.50
2019-02-23T19:15:57.812Z,6.70
2019-02-23T19:18:27.329Z,6.90
2019-02-23T19:20:55.271Z,6.53
2019-02-23T19:23:23.220Z,6.70
2019-02-23T19:25:52.258Z,6.97
2019-02-23T19:28:20.215Z,6.33
2019-02-23T19:30:50.638Z,6.53
2019-02-23T19:33:18.629Z,6.37
2019-02-23T19:35:46.567Z,6.10
2019-02-23T19:38:14.505Z,7.13
2019-02-23T19:40:42.320Z,7.20
2019-02-23T19:43:10.272Z,7.70
2019-02-23T19:45:38.547Z,7.20
2019-02-23T19:48:06.540Z,7.00
2019-02-23T19:50:40.841Z,6.80
2019-02-23T19:53:10.785Z,6.20
2019-02-23T19:55:38.746Z,6.47
2019-02-23T19:58:06.956Z,6.33
2019-02-23T20:00:40.496Z,6.80
2019-02-23T20:03:09.829Z,6.37
2019-02-23T20:05:38.242Z,5.90
2019-02-23T20:08:06.466Z,5.90
2019-02-23T20:10:34.359Z,6.00
2019-02-23T20:13:03.773Z,6.30
2019-02-23T20:15:34.019Z,5.70
2019-02-23T20:18:02.264Z,5.83
2019-02-23T20:20:30.330Z,6.53
2019-02-23T20:22:58.444Z,5.50
2019-02-23T20:25:26.387Z,5.60
2019-02-23T20:27:54.535Z,6.17
2019-02-23T20:30:22.757Z,6.30
2019-02-23T20:32:50.690Z,5.27
2019-02-23T20:35:18.642Z,6.73
2019-02-23T20:37:48.314Z,6.47
2019-02-23T20:40:17.561Z,6.03
2019-02-23T20:42:45.754Z,6.07
2019-02-23T20:45:13.764Z,5.67
2019-02-23T20:47:41.700Z,5.53
2019-02-23T20:50:09.813Z,5.83
2019-02-23T20:52:38.255Z,5.80
2019-02-23T20:55:06.409Z,5.90
2019-02-23T20:57:34.329Z,5.57
2019-02-23T21:00:03.690Z,5.90
2019-02-23T21:02:32.853Z,5.80
2019-02-23T21:05:00.885Z,6.10
2019-02-23T21:07:28.863Z,5.80
2019-02-23T21:09:56.815Z,5.77
2019-02-23T21:12:24.835Z,6.17
2019-02-23T21:14:52.837Z,6.17
2019-02-23T21:17:20.800Z,5.50
2019-02-23T21:19:48.737Z,5.93
2019-02-23T21:22:16.646Z,6.00
2019-02-23T21:24:44.476Z,6.40
2019-02-23T21:27:13.244Z,6.27
2019-02-23T21:29:41.392Z,6.40
2019-02-23T21:32:12.263Z,6.47
2019-02-23T21:34:42.225Z,6.30
2019-02-23T21:37:10.183Z,6.20
2019-02-23T21:39:38.060Z,6.77
2019-02-23T21:42:05.957Z,6.17
2019-02-23T21:44:33.894Z,6.33
2019-02-23T21:47:01.659Z,6.40
2019-02-23T21:49:29.529Z,5.90
2019-02-23T21:51:57.435Z,6.37
2019-02-23T21:54:25.122Z,6.30
2019-02-23T21:56:52.979Z,6.23
2019-02-23T21:59:20.850Z,6.27
2019-02-23T22:01:48.733Z,6.30
2019-02-23T22:04:16.373Z,6.37
2019-02-23T22:06:44.104Z,6.13
2019-02-23T22:09:11.761Z,6.47
2019-02-23T22:11:39.398Z,6.40
2019-02-23T22:14:07.012Z,6.00
2019-02-23T22:16:34.789Z,6.00
2019-02-23T22:19:03.157Z,7.13
2019-02-23T22:21:31.068Z,6.80
2019-02-23T22:23:58.810Z,6.80
2019-02-23T22:26:26.394Z,6.40
2019-02-23T22:28:54.055Z,6.73
2019-02-23T22:31:22.038Z,6.50
2019-02-23T22:33:49.747Z,6.23
2019-02-23T22:36:17.807Z,6.97
2019-02-23T22:38:45.346Z,6.13
2019-02-23T22:41:14.378Z,6.63
2019-02-23T22:43:41.988Z,6.37
2019-02-23T22:46:09.403Z,6.50
2019-02-23T22:48:36.820Z,6.40
2019-02-23T22:51:04.262Z,5.80
2019-02-23T22:53:31.696Z,6.20
2019-02-23T22:55:59.076Z,5.73
2019-02-23T22:58:26.551Z,5.90
2019-02-23T23:01:05.203Z,6.03
2019-02-23T23:03:32.570Z,6.50
2019-02-23T23:05:59.937Z,5.77
2019-02-23T23:08:27.336Z,6.90
2019-02-23T23:10:54.754Z,6.30
2019-02-23T23:13:22.105Z,6.37
2019-02-23T23:15:49.455Z,6.40
2019-02-23T23:18:16.872Z,6.50
2019-02-23T23:20:44.270Z,6.10
2019-02-23T23:23:11.617Z,6.60
2019-02-23T23:25:39.104Z,5.87
2019-02-23T23:28:06.453Z,6.40
2019-02-23T23:30:33.838Z,6.73
2019-02-23T23:33:01.337Z,6.70
2019-02-23T23:35:29.092Z,6.00
2019-02-23T23:37:56.738Z,5.63
2019-02-23T23:40:24.446Z,6.07
2019-02-23T23:42:57.989Z,6.13
2019-02-23T23:45:21.076Z,6.17
2019-02-23T23:47:48.477Z,6.30
2019-02-23T23:50:15.815Z,6.10
2019-02-23T23:52:43.251Z,6.80
2019-02-23T23:55:11.642Z,5.67
2019-02-23T23:57:39.128Z,6.30
